createdAt,value
2023-03-16T00:01:25.398Z,0.40
2023-03-16T00:02:58.324Z,0.50
2023-03-16T00:04:31.997Z,0.50
2023-03-16T00:06:04.987Z,0.50
2023-03-16T00:07:37.910Z,0.50
2023-03-16T00:09:10.975Z,0.50
2023-03-16T00:10:47.333Z,0.40
2023-03-16T00:12:20.745Z,0.50
2023-03-16T00:13:53.525Z,0.50
2023-03-16T00:15:26.719Z,0.50
2023-03-16T00:16:59.812Z,0.50
2023-03-16T00:18:39.042Z,0.47
2023-03-16T00:20:12.832Z,0.50
2023-03-16T00:21:45.835Z,0.50
2023-03-16T00:23:20.039Z,0.40
2023-03-16T00:24:53.556Z,0.50
2023-03-16T00:26:26.520Z,0.50
2023-03-16T00:28:03.979Z,0.50
2023-03-16T00:29:36.816Z,0.50
2023-03-16T00:31:15.121Z,0.50
2023-03-16T00:32:48.276Z,0.50
2023-03-16T00:34:23.480Z,0.50
2023-03-16T00:36:02.706Z,0.50
2023-03-16T00:37:37.210Z,0.50
2023-03-16T00:39:12.045Z,0.50
2023-03-16T00:40:46.786Z,0.50
2023-03-16T00:42:20.660Z,0.40
2023-03-16T00:43:54.078Z,0.50
2023-03-16T00:45:26.906Z,0.50
2023-03-16T00:46:59.848Z,0.50
2023-03-16T00:48:36.808Z,0.40
2023-03-16T00:50:10.256Z,0.50
2023-03-16T00:51:46.529Z,0.50
2023-03-16T00:53:19.582Z,0.50
2023-03-16T00:54:53.362Z,0.50
2023-03-16T00:56:27.582Z,0.50
2023-03-16T00:58:00.470Z,0.50
2023-03-16T00:59:37.071Z,0.50
2023-03-16T01:01:20.051Z,0.50
2023-03-16T01:02:54.807Z,0.50
2023-03-16T01:04:27.692Z,0.50
2023-03-16T01:06:06.316Z,0.50
2023-03-16T01:07:40.494Z,0.50
2023-03-16T01:09:15.119Z,0.50
2023-03-16T01:10:48.107Z,0.50
2023-03-16T01:12:21.162Z,0.50
2023-03-16T01:13:54.585Z,0.50
2023-03-16T01:15:27.792Z,0.50
2023-03-16T01:17:01.711Z,0.50
2023-03-16T01:18:35.012Z,0.50
2023-03-16T01:20:16.097Z,0.50
2023-03-16T01:21:49.337Z,0.50
2023-03-16T01:23:22.442Z,0.50
2023-03-16T01:24:56.090Z,0.50
2023-03-16T01:26:28.961Z,0.50
2023-03-16T01:28:02.407Z,0.50
2023-03-16T01:29:36.262Z,0.50
2023-03-16T01:31:12.676Z,0.50
2023-03-16T01:32:45.732Z,0.50
2023-03-16T01:34:20.057Z,0.50
2023-03-16T01:35:58.932Z,0.50
2023-03-16T01:37:35.918Z,0.40
2023-03-16T01:39:20.065Z,0.50
2023-03-16T01:40:56.190Z,0.50
2023-03-16T01:42:29.227Z,0.50
2023-03-16T01:44:02.543Z,0.50
2023-03-16T01:46:00.914Z,0.50
2023-03-16T01:47:38.649Z,0.50
2023-03-16T01:49:33.222Z,0.50
2023-03-16T01:51:15.253Z,0.50
2023-03-16T01:52:48.238Z,0.50
2023-03-16T01:54:32.849Z,0.50
2023-03-16T01:56:10.400Z,0.50
2023-03-16T01:57:47.147Z,0.50
2023-03-16T01:59:25.261Z,0.47
2023-03-16T02:00:59.395Z,0.50
2023-03-16T02:02:32.442Z,0.47
2023-03-16T02:04:30.849Z,0.50
2023-03-16T02:06:19.276Z,0.50
2023-03-16T02:07:59.090Z,0.50
2023-03-16T02:09:33.561Z,0.50
2023-03-16T02:11:08.951Z,0.50
2023-03-16T02:12:49.993Z,0.40
2023-03-16T02:14:25.370Z,0.50
2023-03-16T02:15:58.877Z,0.50
2023-03-16T02:17:35.401Z,0.50
2023-03-16T02:19:27.677Z,0.50
2023-03-16T02:21:42.032Z,0.50
2023-03-16T02:23:22.381Z,0.50
2023-03-16T02:24:56.541Z,0.50
2023-03-16T02:26:45.096Z,0.40
2023-03-16T02:28:37.784Z,0.50
2023-03-16T02:30:18.528Z,0.50
2023-03-16T02:32:11.610Z,0.45
2023-03-16T02:33:46.513Z,0.50
2023-03-16T02:35:21.586Z,0.50
2023-03-16T02:36:57.797Z,0.50
2023-03-16T02:38:32.191Z,0.50
2023-03-16T02:40:26.887Z,0.40
2023-03-16T02:42:03.137Z,0.50
2023-03-16T02:43:38.547Z,0.50
2023-03-16T02:45:29.443Z,0.50
2023-03-16T02:47:11.667Z,0.50
2023-03-16T02:48:54.233Z,0.50
2023-03-16T02:50:27.417Z,0.50
2023-03-16T02:52:00.681Z,0.50
2023-03-16T02:53:36.929Z,0.50
2023-03-16T02:55:10.268Z,0.40
2023-03-16T02:56:43.316Z,0.50
2023-03-16T02:58:18.285Z,0.50
2023-03-16T02:59:52.748Z,0.50
2023-03-16T03:01:26.023Z,0.47
2023-03-16T03:02:59.043Z,0.40
2023-03-16T03:04:33.431Z,0.40
2023-03-16T03:06:06.775Z,0.50
2023-03-16T03:07:42.401Z,0.40
2023-03-16T03:09:15.517Z,0.40
2023-03-16T03:10:49.760Z,0.50
2023-03-16T03:12:22.613Z,0.40
2023-03-16T03:13:56.117Z,0.40
2023-03-16T03:15:31.894Z,0.45
2023-03-16T03:17:11.119Z,0.50
2023-03-16T03:18:44.210Z,0.50
2023-03-16T03:20:18.559Z,0.50
2023-03-16T03:21:51.908Z,0.50
2023-03-16T03:23:24.962Z,0.50
2023-03-16T03:24:58.015Z,0.40
2023-03-16T03:26:31.352Z,0.40
2023-03-16T03:28:06.247Z,0.45
2023-03-16T03:29:39.432Z,0.40
2023-03-16T03:31:17.852Z,0.50
2023-03-16T03:32:52.731Z,0.47
2023-03-16T03:34:26.946Z,0.40
2023-03-16T03:36:00.674Z,0.40
2023-03-16T03:37:41.010Z,0.40
2023-03-16T03:39:13.989Z,0.50
2023-03-16T03:40:50.852Z,0.40
2023-03-16T03:42:24.310Z,0.50
2023-03-16T03:43:57.471Z,0.50
2023-03-16T03:45:30.951Z,0.47
2023-03-16T03:47:05.985Z,0.40
2023-03-16T03:48:39.029Z,0.45
2023-03-16T03:50:14.135Z,0.43
2023-03-16T03:52:02.857Z,0.40
2023-03-16T03:53:35.833Z,0.40
2023-03-16T03:55:31.763Z,0.40
2023-03-16T03:57:05.684Z,0.40
2023-03-16T03:58:38.603Z,0.40
2023-03-16T04:00:13.831Z,0.43
2023-03-16T04:01:49.398Z,0.50
2023-03-16T04:03:22.384Z,0.40
2023-03-16T04:04:55.199Z,0.50
2023-03-16T04:06:28.401Z,0.40
2023-03-16T04:08:01.479Z,0.50
2023-03-16T04:09:34.460Z,0.40
2023-03-16T04:11:08.006Z,0.40
2023-03-16T04:12:41.200Z,0.40
2023-03-16T04:14:17.427Z,0.40
2023-03-16T04:15:56.559Z,0.32
2023-03-16T04:17:34.737Z,0.40
2023-03-16T04:19:11.741Z,0.40
2023-03-16T04:20:44.923Z,0.30
2023-03-16T04:22:23.876Z,0.40
2023-03-16T04:23:57.895Z,0.30
2023-03-16T04:25:38.882Z,0.40
2023-03-16T04:27:13.667Z,0.30
2023-03-16T04:28:47.492Z,0.32
2023-03-16T04:30:26.718Z,0.30
2023-03-16T04:32:08.443Z,0.40
2023-03-16T04:33:42.762Z,0.30
2023-03-16T04:35:16.023Z,0.32
2023-03-16T04:36:55.288Z,0.30
2023-03-16T04:38:30.001Z,0.30
2023-03-16T04:40:16.019Z,0.40
2023-03-16T04:41:53.576Z,0.30
2023-03-16T04:43:29.672Z,0.30
2023-03-16T04:45:09.108Z,0.30
2023-03-16T04:46:42.226Z,0.30
2023-03-16T04:48:16.849Z,0.20
2023-03-16T04:49:50.271Z,0.30
2023-03-16T04:51:23.293Z,0.30
2023-03-16T04:53:25.981Z,0.30
2023-03-16T04:55:06.296Z,0.30
2023-03-16T04:56:41.880Z,0.30
2023-03-16T04:58:34.705Z,0.30
2023-03-16T05:00:12.052Z,0.20
2023-03-16T05:01:52.691Z,0.20
2023-03-16T05:03:26.072Z,0.20
2023-03-16T05:05:00.451Z,0.22
2023-03-16T05:06:33.414Z,0.20
2023-03-16T05:08:08.013Z,0.20
2023-03-16T05:09:42.589Z,0.30
2023-03-16T05:11:15.841Z,0.30
2023-03-16T05:12:59.135Z,0.22
2023-03-16T05:14:32.210Z,0.30
2023-03-16T05:16:30.325Z,0.30
2023-03-16T05:18:03.290Z,0.30
2023-03-16T05:19:36.444Z,0.30
2023-03-16T05:21:10.922Z,0.20
2023-03-16T05:22:56.958Z,0.30
2023-03-16T05:24:37.418Z,0.30
2023-03-16T05:26:10.830Z,0.30
2023-03-16T05:27:46.159Z,0.20
2023-03-16T05:29:26.181Z,0.30
2023-03-16T05:30:59.261Z,0.20
2023-03-16T05:32:33.708Z,0.30
2023-03-16T05:34:06.670Z,0.30
2023-03-16T05:35:40.509Z,0.30
2023-03-16T05:37:16.739Z,0.30
2023-03-16T05:38:49.829Z,0.20
2023-03-16T05:40:44.774Z,0.30
2023-03-16T05:42:27.371Z,0.30
2023-03-16T05:44:05.179Z,0.20
2023-03-16T05:46:06.596Z,0.30
2023-03-16T05:47:40.940Z,0.20
2023-03-16T05:49:14.381Z,0.30
2023-03-16T05:50:48.236Z,0.20
2023-03-16T05:52:25.951Z,0.30
2023-03-16T05:54:00.969Z,0.30
2023-03-16T05:55:53.904Z,0.20
2023-03-16T05:57:27.653Z,0.28
2023-03-16T05:59:01.773Z,0.30
2023-03-16T06:00:35.035Z,0.20
2023-03-16T06:02:17.642Z,0.20
2023-03-16T06:03:52.445Z,0.30
2023-03-16T06:05:29.842Z,0.20
2023-03-16T06:07:03.304Z,0.30
2023-03-16T06:08:37.212Z,0.28
2023-03-16T06:10:15.248Z,0.25
2023-03-16T06:11:48.556Z,0.20
2023-03-16T06:13:23.496Z,0.30
2023-03-16T06:14:56.457Z,0.25
2023-03-16T06:16:30.175Z,0.20
2023-03-16T06:18:03.399Z,0.20
2023-03-16T06:19:36.585Z,0.30
2023-03-16T06:21:09.900Z,0.30
2023-03-16T06:22:45.004Z,0.20
2023-03-16T06:24:18.544Z,0.30
2023-03-16T06:25:54.790Z,0.20
2023-03-16T06:27:30.712Z,0.30
2023-03-16T06:29:16.280Z,0.30
2023-03-16T06:30:55.400Z,0.30
2023-03-16T06:32:30.919Z,0.20
2023-03-16T06:34:03.925Z,0.30
2023-03-16T06:35:38.163Z,0.30
2023-03-16T06:37:22.352Z,0.25
2023-03-16T06:38:55.617Z,0.20
2023-03-16T06:40:38.412Z,0.30
2023-03-16T06:42:12.324Z,0.30
2023-03-16T06:43:45.333Z,0.20
2023-03-16T06:45:21.629Z,0.20
2023-03-16T06:46:55.807Z,0.30
2023-03-16T06:48:28.944Z,0.30
2023-03-16T06:50:02.118Z,0.20
2023-03-16T06:51:36.082Z,0.28
2023-03-16T06:53:09.315Z,0.30
2023-03-16T06:54:43.420Z,0.20
2023-03-16T06:56:16.976Z,0.20
2023-03-16T06:57:52.154Z,0.20
2023-03-16T06:59:25.224Z,0.20
2023-03-16T07:01:02.514Z,0.20
2023-03-16T07:02:36.278Z,0.20
2023-03-16T07:04:10.420Z,0.20
2023-03-16T07:05:43.903Z,0.20
2023-03-16T07:07:17.696Z,0.20
2023-03-16T07:08:50.728Z,0.20
2023-03-16T07:10:25.964Z,0.20
2023-03-16T07:11:59.110Z,0.20
2023-03-16T07:13:32.145Z,0.30
2023-03-16T07:16:39.491Z,0.20
2023-03-16T07:18:17.524Z,0.30
2023-03-16T07:19:50.569Z,0.20
2023-03-16T07:21:23.513Z,0.20
2023-03-16T07:22:57.136Z,0.20
2023-03-16T07:24:31.087Z,0.20
2023-03-16T07:26:04.202Z,0.20
2023-03-16T07:27:39.455Z,0.20
2023-03-16T07:29:14.237Z,0.20
2023-03-16T07:31:02.528Z,0.20
2023-03-16T07:32:46.894Z,0.20
2023-03-16T07:34:21.804Z,0.20
2023-03-16T07:36:00.816Z,0.20
2023-03-16T07:37:35.387Z,0.30
2023-03-16T07:39:10.247Z,0.20
2023-03-16T07:40:43.419Z,0.20
2023-03-16T07:42:24.232Z,0.30
2023-03-16T07:44:13.015Z,0.25
2023-03-16T07:45:50.567Z,0.20
2023-03-16T07:47:26.695Z,0.30
2023-03-16T07:49:03.440Z,0.30
2023-03-16T07:50:36.969Z,0.30
2023-03-16T07:52:13.904Z,0.30
2023-03-16T07:53:48.313Z,0.20
2023-03-16T07:55:26.093Z,0.30
2023-03-16T07:57:01.554Z,0.30
2023-03-16T07:58:43.269Z,0.20
2023-03-16T08:00:16.753Z,0.25
2023-03-16T08:01:51.872Z,0.30
2023-03-16T08:05:00.046Z,0.30
2023-03-16T08:06:33.053Z,0.20
2023-03-16T08:08:11.283Z,0.20
2023-03-16T08:09:45.056Z,0.30
2023-03-16T08:11:25.170Z,0.20
2023-03-16T08:13:07.708Z,0.20
2023-03-16T08:14:41.833Z,0.20
2023-03-16T08:16:24.594Z,0.20
2023-03-16T08:17:59.408Z,0.25
2023-03-16T08:19:32.837Z,0.20
2023-03-16T08:21:11.260Z,0.20
2023-03-16T08:22:46.996Z,0.20
2023-03-16T08:24:22.793Z,0.20
2023-03-16T08:25:58.038Z,0.30
2023-03-16T08:27:33.130Z,0.20
2023-03-16T08:29:10.708Z,0.20
2023-03-16T08:30:47.285Z,0.30
2023-03-16T08:32:41.282Z,0.25
2023-03-16T08:34:16.591Z,0.20
2023-03-16T08:35:51.050Z,0.20
2023-03-16T08:37:25.028Z,0.20
2023-03-16T08:39:07.023Z,0.20
2023-03-16T08:40:49.008Z,0.20
2023-03-16T08:42:25.641Z,0.20
2023-03-16T08:44:03.588Z,0.20
2023-03-16T08:45:37.532Z,0.20
2023-03-16T08:47:11.268Z,0.20
2023-03-16T08:48:46.537Z,0.20
2023-03-16T08:50:21.180Z,0.20
2023-03-16T08:51:54.520Z,0.20
2023-03-16T08:53:28.638Z,0.20
2023-03-16T08:55:04.012Z,0.30
2023-03-16T08:56:37.692Z,0.20
2023-03-16T08:58:12.451Z,0.20
2023-03-16T08:59:45.394Z,0.20
2023-03-16T09:02:52.583Z,0.20
2023-03-16T09:04:25.662Z,0.20
2023-03-16T09:06:04.212Z,0.20
2023-03-16T09:07:37.996Z,0.20
2023-03-16T09:09:11.281Z,0.20
2023-03-16T09:10:45.138Z,0.20
2023-03-16T09:12:18.312Z,0.20
2023-03-16T09:13:53.003Z,0.20
2023-03-16T09:15:27.044Z,0.20
2023-03-16T09:17:00.076Z,0.20
2023-03-16T09:18:35.734Z,0.20
2023-03-16T09:20:21.791Z,0.20
2023-03-16T09:21:56.130Z,0.20
2023-03-16T09:23:30.460Z,0.20
2023-03-16T09:25:05.950Z,0.20
2023-03-16T09:26:40.266Z,0.20
2023-03-16T09:28:13.185Z,0.20
2023-03-16T09:31:20.747Z,0.23
2023-03-16T09:32:53.738Z,0.20
2023-03-16T09:34:28.233Z,0.20
2023-03-16T09:36:03.176Z,0.20
2023-03-16T09:37:45.014Z,0.20
2023-03-16T09:39:19.508Z,0.20
2023-03-16T09:41:03.570Z,0.20
2023-03-16T09:42:47.982Z,0.20
2023-03-16T09:44:50.111Z,0.20
2023-03-16T09:46:51.090Z,0.25
2023-03-16T09:48:27.111Z,0.20
2023-03-16T09:50:08.894Z,0.20
2023-03-16T09:51:44.918Z,0.20
2023-03-16T09:53:32.936Z,0.20
2023-03-16T09:55:36.840Z,0.20
2023-03-16T09:57:30.209Z,0.20
2023-03-16T09:59:12.285Z,0.20
2023-03-16T10:01:00.144Z,0.20
2023-03-16T10:02:47.290Z,0.22
2023-03-16T10:04:31.997Z,0.20
2023-03-16T10:06:09.858Z,0.20
2023-03-16T10:07:42.927Z,0.30
2023-03-16T10:10:52.132Z,0.30
2023-03-16T10:12:36.145Z,0.20
2023-03-16T10:14:17.924Z,0.20
2023-03-16T10:15:53.859Z,0.20
2023-03-16T10:17:32.092Z,0.20
2023-03-16T10:19:47.956Z,0.20
2023-03-16T10:21:21.930Z,0.22
2023-03-16T10:22:55.616Z,0.20
2023-03-16T10:24:39.055Z,0.20
2023-03-16T10:26:26.611Z,0.20
2023-03-16T10:27:59.879Z,0.20
2023-03-16T10:31:11.785Z,0.20
2023-03-16T10:32:45.032Z,0.20
2023-03-16T10:34:18.544Z,0.20
2023-03-16T10:36:04.325Z,0.30
2023-03-16T10:37:39.013Z,0.20
2023-03-16T10:39:14.863Z,0.20
2023-03-16T10:40:47.756Z,0.30
2023-03-16T10:42:21.836Z,0.25
2023-03-16T10:44:10.348Z,0.20
2023-03-16T10:45:43.874Z,0.20
2023-03-16T10:47:31.809Z,0.20
2023-03-16T10:49:04.767Z,0.20
2023-03-16T10:50:37.842Z,0.20
2023-03-16T10:52:30.836Z,0.20
2023-03-16T10:54:34.170Z,0.20
2023-03-16T10:56:14.195Z,0.20
2023-03-16T10:57:53.965Z,0.20
2023-03-16T10:59:28.941Z,0.28
2023-03-16T11:01:02.001Z,0.30
2023-03-16T11:02:35.771Z,0.20
2023-03-16T11:04:16.884Z,0.20
2023-03-16T11:05:58.327Z,0.20
2023-03-16T11:07:31.192Z,0.20
2023-03-16T11:11:01.282Z,0.20
2023-03-16T11:12:35.393Z,0.20
2023-03-16T11:14:15.676Z,0.30
2023-03-16T11:15:57.925Z,0.22
2023-03-16T11:17:45.138Z,0.20
2023-03-16T11:19:30.854Z,0.20
2023-03-16T11:21:29.432Z,0.30
2023-03-16T11:23:02.851Z,0.30
2023-03-16T11:24:48.068Z,0.20
2023-03-16T11:26:31.721Z,0.30
2023-03-16T11:28:18.041Z,0.20
2023-03-16T11:30:05.144Z,0.20
2023-03-16T11:31:43.285Z,0.20
2023-03-16T11:33:16.742Z,0.30
2023-03-16T11:34:49.966Z,0.20
2023-03-16T11:36:43.841Z,0.30
2023-03-16T11:38:19.790Z,0.20
2023-03-16T11:40:29.249Z,0.20
2023-03-16T11:42:08.128Z,0.30
2023-03-16T11:43:57.609Z,0.20
2023-03-16T11:46:10.246Z,0.20
2023-03-16T11:47:58.061Z,0.20
2023-03-16T11:49:48.504Z,0.20
2023-03-16T11:51:41.136Z,0.28
2023-03-16T11:55:20.191Z,0.28
2023-03-16T11:57:12.684Z,0.20
2023-03-16T11:58:56.807Z,0.20
2023-03-16T12:00:29.735Z,0.20
2023-03-16T12:04:11.121Z,0.20
2023-03-16T12:05:53.630Z,0.20
2023-03-16T12:07:46.218Z,0.20
2023-03-16T12:09:23.200Z,0.30
2023-03-16T12:11:10.738Z,0.20
2023-03-16T12:13:04.256Z,0.20
2023-03-16T12:14:51.286Z,0.30
2023-03-16T12:16:46.334Z,0.20
2023-03-16T12:18:44.827Z,0.20
2023-03-16T12:20:21.462Z,0.20
2023-03-16T12:22:08.144Z,0.20
2023-03-16T12:23:57.003Z,0.25
2023-03-16T12:25:35.357Z,0.30
2023-03-16T12:27:16.464Z,0.22
2023-03-16T12:28:53.393Z,0.20
2023-03-16T12:30:38.773Z,0.20
2023-03-16T12:32:42.641Z,0.20
2023-03-16T12:36:34.191Z,0.30
2023-03-16T12:38:08.147Z,0.20
2023-03-16T12:39:57.419Z,0.30
2023-03-16T12:42:00.538Z,0.20
2023-03-16T12:43:40.353Z,0.30
2023-03-16T12:45:16.870Z,0.28
2023-03-16T12:46:56.879Z,0.20
2023-03-16T12:48:34.511Z,0.20
2023-03-16T12:50:13.325Z,0.20
2023-03-16T12:53:50.674Z,0.20
2023-03-16T12:55:41.143Z,0.25
2023-03-16T12:57:17.634Z,0.20
2023-03-16T12:58:54.759Z,0.20
2023-03-16T13:00:38.972Z,0.20
2023-03-16T13:02:39.340Z,0.20
2023-03-16T13:04:26.519Z,0.30
2023-03-16T13:06:01.001Z,0.20
2023-03-16T13:07:35.731Z,0.20
2023-03-16T13:09:11.639Z,0.20
2023-03-16T13:11:04.825Z,0.20
2023-03-16T13:12:42.002Z,0.20
2023-03-16T13:14:32.987Z,0.25
2023-03-16T13:16:11.403Z,0.20
2023-03-16T13:17:44.618Z,0.20
2023-03-16T13:19:26.404Z,0.20
2023-03-16T13:21:17.877Z,0.30
2023-03-16T13:23:26.369Z,0.20
2023-03-16T13:25:25.745Z,0.20
2023-03-16T13:27:07.215Z,0.20
2023-03-16T13:28:40.546Z,0.20
2023-03-16T13:30:17.567Z,0.30
2023-03-16T13:31:53.044Z,0.20
2023-03-16T13:33:33.587Z,0.20
2023-03-16T13:35:14.402Z,0.25
2023-03-16T13:36:50.680Z,0.30
2023-03-16T13:38:32.087Z,0.22
2023-03-16T13:40:23.553Z,0.20
2023-03-16T13:42:17.237Z,0.20
2023-03-16T13:43:56.752Z,0.30
2023-03-16T13:45:37.974Z,0.20
2023-03-16T13:47:20.356Z,0.30
2023-03-16T13:48:54.004Z,0.30
2023-03-16T13:50:35.720Z,0.30
2023-03-16T13:52:26.971Z,0.20
2023-03-16T13:54:07.268Z,0.30
2023-03-16T13:55:42.027Z,0.30
2023-03-16T13:57:24.504Z,0.30
2023-03-16T13:58:59.718Z,0.30
2023-03-16T14:00:38.130Z,0.22
2023-03-16T14:02:19.572Z,0.20
2023-03-16T14:03:56.215Z,0.30
2023-03-16T14:05:34.169Z,0.30
2023-03-16T14:07:17.762Z,0.30
2023-03-16T14:08:54.277Z,0.30
2023-03-16T14:10:33.539Z,0.30
2023-03-16T14:12:06.888Z,0.20
2023-03-16T14:13:44.369Z,0.30
2023-03-16T14:15:21.638Z,0.30
2023-03-16T14:17:09.737Z,0.28
2023-03-16T14:18:59.941Z,0.20
2023-03-16T14:20:40.905Z,0.30
2023-03-16T14:22:25.393Z,0.30
2023-03-16T14:24:23.169Z,0.30
2023-03-16T14:25:57.339Z,0.30
2023-03-16T14:27:43.699Z,0.30
2023-03-16T14:29:33.933Z,0.25
2023-03-16T14:31:11.471Z,0.20
2023-03-16T14:33:06.363Z,0.30
2023-03-16T14:34:42.853Z,0.38
2023-03-16T14:36:20.286Z,0.30
2023-03-16T14:37:55.538Z,0.30
2023-03-16T14:39:30.167Z,0.30
2023-03-16T14:41:09.408Z,0.30
2023-03-16T14:42:43.580Z,0.30
2023-03-16T14:44:24.125Z,0.30
2023-03-16T14:45:58.451Z,0.30
2023-03-16T14:47:38.405Z,0.30
2023-03-16T14:49:21.294Z,0.30
2023-03-16T14:51:01.220Z,0.30
2023-03-16T14:52:35.615Z,0.30
2023-03-16T14:54:17.431Z,0.30
2023-03-16T14:55:50.950Z,0.30
2023-03-16T14:57:26.362Z,0.30
2023-03-16T14:58:59.349Z,0.30
2023-03-16T15:00:42.757Z,0.30
2023-03-16T15:02:30.575Z,0.30
2023-03-16T15:04:05.224Z,0.40
2023-03-16T15:05:40.751Z,0.30
2023-03-16T15:07:25.495Z,0.30
2023-03-16T15:08:59.501Z,0.30
2023-03-16T15:10:35.531Z,0.30
2023-03-16T15:12:26.932Z,0.30
2023-03-16T15:14:15.097Z,0.30
2023-03-16T15:15:48.913Z,0.20
2023-03-16T15:17:22.214Z,0.30
2023-03-16T15:18:55.028Z,0.20
2023-03-16T15:22:12.824Z,0.30
2023-03-16T15:23:46.119Z,0.20
2023-03-16T15:25:37.522Z,0.30
2023-03-16T15:27:21.316Z,0.30
2023-03-16T15:28:56.075Z,0.30
2023-03-16T15:30:31.120Z,0.30
2023-03-16T15:32:06.756Z,0.30
2023-03-16T15:33:39.694Z,0.30
2023-03-16T15:35:12.533Z,0.38
2023-03-16T15:36:46.330Z,0.25
2023-03-16T15:38:24.549Z,0.30
2023-03-16T15:39:57.687Z,0.30
2023-03-16T15:41:41.435Z,0.30
2023-03-16T15:43:23.072Z,0.30
2023-03-16T15:44:56.180Z,0.40
2023-03-16T15:46:29.195Z,0.30
2023-03-16T15:48:02.245Z,0.30
2023-03-16T15:49:46.598Z,0.30
2023-03-16T15:51:28.382Z,0.30
2023-03-16T15:53:09.078Z,0.40
2023-03-16T15:54:43.272Z,0.20
2023-03-16T15:56:19.848Z,0.30
2023-03-16T15:57:59.138Z,0.30
2023-03-16T15:59:40.288Z,0.30
2023-03-16T16:01:39.821Z,0.30
2023-03-16T16:03:14.177Z,0.20
2023-03-16T16:04:47.185Z,0.30
2023-03-16T16:06:21.247Z,0.30
2023-03-16T16:07:55.325Z,0.30
2023-03-16T16:09:28.285Z,0.30
2023-03-16T16:11:01.983Z,0.30
2023-03-16T16:12:35.080Z,0.30
2023-03-16T16:14:15.615Z,0.30
2023-03-16T16:15:50.436Z,0.30
2023-03-16T16:17:45.825Z,0.30
2023-03-16T16:19:24.036Z,0.30
2023-03-16T16:21:06.695Z,0.30
2023-03-16T16:22:40.399Z,0.30
2023-03-16T16:24:14.285Z,0.38
2023-03-16T16:25:48.778Z,0.40
2023-03-16T16:27:22.526Z,0.35
2023-03-16T16:28:58.786Z,0.30
2023-03-16T16:30:33.006Z,0.30
2023-03-16T16:32:24.547Z,0.40
2023-03-16T16:33:59.304Z,0.30
2023-03-16T16:35:32.748Z,0.30
2023-03-16T16:37:06.226Z,0.40
2023-03-16T16:38:39.943Z,0.30
2023-03-16T16:40:23.747Z,0.30
2023-03-16T16:41:57.689Z,0.40
2023-03-16T16:43:37.147Z,0.30
2023-03-16T16:45:26.209Z,0.30
2023-03-16T16:47:00.051Z,0.40
2023-03-16T16:48:43.313Z,0.40
2023-03-16T16:51:56.122Z,0.40
2023-03-16T16:53:30.126Z,0.40
2023-03-16T16:55:03.820Z,0.32
2023-03-16T16:56:38.015Z,0.35
2023-03-16T16:58:23.478Z,0.30
2023-03-16T16:59:58.433Z,0.40
2023-03-16T17:01:35.630Z,0.30
2023-03-16T17:03:30.076Z,0.30
2023-03-16T17:05:03.998Z,0.40
2023-03-16T17:06:37.969Z,0.40
2023-03-16T17:08:12.831Z,0.40
2023-03-16T17:09:47.112Z,0.30
2023-03-16T17:11:30.287Z,0.30
2023-03-16T17:13:03.856Z,0.30
2023-03-16T17:14:37.266Z,0.30
2023-03-16T17:16:16.703Z,0.40
2023-03-16T17:17:50.629Z,0.40
2023-03-16T17:19:27.329Z,0.40
2023-03-16T17:21:00.893Z,0.30
2023-03-16T17:22:34.131Z,0.30
2023-03-16T17:24:08.153Z,0.30
2023-03-16T17:25:41.632Z,0.30
2023-03-16T17:27:22.292Z,0.30
2023-03-16T17:29:00.281Z,0.30
2023-03-16T17:30:33.807Z,0.30
2023-03-16T17:32:19.728Z,0.40
2023-03-16T17:33:54.669Z,0.30
2023-03-16T17:35:32.423Z,0.30
2023-03-16T17:37:08.902Z,0.40
2023-03-16T17:38:42.464Z,0.38
2023-03-16T17:40:21.476Z,0.30
2023-03-16T17:42:03.509Z,0.38
2023-03-16T17:43:37.535Z,0.30
2023-03-16T17:45:31.459Z,0.30
2023-03-16T17:47:12.980Z,0.40
2023-03-16T17:48:46.010Z,0.30
2023-03-16T17:50:25.067Z,0.40
2023-03-16T17:51:58.341Z,0.40
2023-03-16T17:53:31.800Z,0.40
2023-03-16T17:55:05.615Z,0.30
2023-03-16T17:56:40.706Z,0.40
2023-03-16T17:58:41.539Z,0.40
2023-03-16T18:00:33.109Z,0.30
2023-03-16T18:02:41.651Z,0.38
2023-03-16T18:04:23.517Z,0.40
2023-03-16T18:05:56.517Z,0.40
2023-03-16T18:07:29.531Z,0.30
2023-03-16T18:09:02.714Z,0.30
2023-03-16T18:10:37.170Z,0.40
2023-03-16T18:12:10.387Z,0.40
2023-03-16T18:13:43.601Z,0.40
2023-03-16T18:15:21.508Z,0.40
2023-03-16T18:16:55.172Z,0.32
2023-03-16T18:18:31.840Z,0.40
2023-03-16T18:20:05.830Z,0.35
2023-03-16T18:21:39.364Z,0.40
2023-03-16T18:23:23.865Z,0.38
2023-03-16T18:24:56.917Z,0.30
2023-03-16T18:26:30.159Z,0.30
2023-03-16T18:28:03.232Z,0.40
2023-03-16T18:29:36.273Z,0.40
2023-03-16T18:31:21.708Z,0.40
2023-03-16T18:32:55.796Z,0.38
2023-03-16T18:34:34.360Z,0.40
2023-03-16T18:36:19.113Z,0.40
2023-03-16T18:37:55.066Z,0.40
2023-03-16T18:39:27.985Z,0.30
2023-03-16T18:41:04.839Z,0.40
2023-03-16T18:42:38.389Z,0.30
2023-03-16T18:44:23.682Z,0.38
2023-03-16T18:45:57.265Z,0.40
2023-03-16T18:47:31.903Z,0.40
2023-03-16T18:49:19.326Z,0.30
2023-03-16T18:50:52.448Z,0.30
2023-03-16T18:52:29.387Z,0.38
2023-03-16T18:54:02.660Z,0.40
2023-03-16T18:55:36.071Z,0.40
2023-03-16T18:57:18.617Z,0.40
2023-03-16T18:58:53.403Z,0.40
2023-03-16T19:00:27.584Z,0.40
2023-03-16T19:02:01.011Z,0.40
2023-03-16T19:03:43.173Z,0.40
2023-03-16T19:05:23.696Z,0.40
2023-03-16T19:06:57.853Z,0.40
2023-03-16T19:08:31.533Z,0.32
2023-03-16T19:10:25.593Z,0.40
2023-03-16T19:11:59.367Z,0.40
2023-03-16T19:13:32.666Z,0.40
2023-03-16T19:15:27.996Z,0.43
2023-03-16T19:17:01.961Z,0.40
2023-03-16T19:18:43.586Z,0.40
2023-03-16T19:20:19.635Z,0.40
2023-03-16T19:21:55.096Z,0.40
2023-03-16T19:23:37.043Z,0.40
2023-03-16T19:25:17.725Z,0.40
2023-03-16T19:26:51.411Z,0.40
2023-03-16T19:28:37.428Z,0.40
2023-03-16T19:30:22.485Z,0.40
2023-03-16T19:31:56.979Z,0.40
2023-03-16T19:33:30.198Z,0.40
2023-03-16T19:35:03.072Z,0.40
2023-03-16T19:36:37.131Z,0.40
2023-03-16T19:38:10.421Z,0.40
2023-03-16T19:39:44.189Z,0.40
2023-03-16T19:41:32.860Z,0.45
2023-03-16T19:43:11.292Z,0.40
2023-03-16T19:44:47.718Z,0.40
2023-03-16T19:46:20.639Z,0.40
2023-03-16T19:47:53.747Z,0.40
2023-03-16T19:49:27.948Z,0.40
2023-03-16T19:51:01.708Z,0.40
2023-03-16T19:52:34.555Z,0.40
2023-03-16T19:54:07.571Z,0.40
2023-03-16T19:55:40.779Z,0.40
2023-03-16T19:57:16.277Z,0.40
2023-03-16T19:58:51.831Z,0.40
2023-03-16T20:00:26.993Z,0.40
2023-03-16T20:02:01.100Z,0.40
2023-03-16T20:03:36.794Z,0.40
2023-03-16T20:05:17.295Z,0.40
2023-03-16T20:06:51.196Z,0.40
2023-03-16T20:08:29.574Z,0.30
2023-03-16T20:10:02.481Z,0.40
2023-03-16T20:11:35.528Z,0.40
2023-03-16T20:13:11.234Z,0.35
2023-03-16T20:14:44.346Z,0.45
2023-03-16T20:16:21.928Z,0.30
2023-03-16T20:17:55.256Z,0.40
2023-03-16T20:19:28.864Z,0.50
2023-03-16T20:21:02.147Z,0.30
2023-03-16T20:22:35.375Z,0.50
2023-03-16T20:24:20.272Z,0.40
2023-03-16T20:26:03.000Z,0.40
2023-03-16T20:27:36.898Z,0.50
2023-03-16T20:29:22.447Z,0.40
2023-03-16T20:30:55.749Z,0.43
2023-03-16T20:32:33.516Z,0.40
2023-03-16T20:34:23.088Z,0.40
2023-03-16T20:35:56.664Z,0.40
2023-03-16T20:37:31.567Z,0.40
2023-03-16T20:39:04.594Z,0.40
2023-03-16T20:40:37.557Z,0.40
2023-03-16T20:42:18.571Z,0.40
2023-03-16T20:43:52.443Z,0.47
2023-03-16T20:45:28.857Z,0.40
2023-03-16T20:47:02.255Z,0.40
2023-03-16T20:48:35.191Z,0.45
2023-03-16T20:50:19.363Z,0.50
2023-03-16T20:51:52.652Z,0.40
2023-03-16T20:53:26.817Z,0.47
2023-03-16T20:54:59.926Z,0.40
2023-03-16T20:56:34.113Z,0.50
2023-03-16T20:58:18.498Z,0.40
2023-03-16T20:59:54.286Z,0.40
2023-03-16T21:01:27.359Z,0.40
2023-03-16T21:03:01.714Z,0.40
2023-03-16T21:04:34.624Z,0.40
2023-03-16T21:06:22.762Z,0.47
2023-03-16T21:07:55.969Z,0.40
2023-03-16T21:09:31.527Z,0.40
2023-03-16T21:11:05.760Z,0.40
2023-03-16T21:12:42.505Z,0.40
2023-03-16T21:14:22.641Z,0.40
2023-03-16T21:15:58.405Z,0.40
2023-03-16T21:17:34.638Z,0.40
2023-03-16T21:19:26.082Z,0.40
2023-03-16T21:20:59.054Z,0.40
2023-03-16T21:22:35.415Z,0.40
2023-03-16T21:24:08.732Z,0.47
2023-03-16T21:25:49.779Z,0.40
2023-03-16T21:27:26.812Z,0.50
2023-03-16T21:29:06.966Z,0.40
2023-03-16T21:30:44.598Z,0.30
2023-03-16T21:32:22.705Z,0.50
2023-03-16T21:33:56.465Z,0.40
2023-03-16T21:35:34.318Z,0.40
2023-03-16T21:37:14.242Z,0.40
2023-03-16T21:38:48.500Z,0.40
2023-03-16T21:40:23.103Z,0.45
2023-03-16T21:41:56.358Z,0.40
2023-03-16T21:43:29.513Z,0.40
2023-03-16T21:45:02.859Z,0.40
2023-03-16T21:46:36.925Z,0.40
2023-03-16T21:48:36.895Z,0.40
2023-03-16T21:50:19.429Z,0.40
2023-03-16T21:51:52.470Z,0.40
2023-03-16T21:53:29.441Z,0.40
2023-03-16T21:55:02.354Z,0.40
2023-03-16T21:56:36.339Z,0.40
2023-03-16T21:58:09.671Z,0.40
2023-03-16T21:59:42.518Z,0.40
2023-03-16T22:02:00.373Z,0.40
2023-03-16T22:03:50.509Z,0.40
2023-03-16T22:05:41.180Z,0.40
2023-03-16T22:07:16.022Z,0.40
2023-03-16T22:08:51.136Z,0.40
2023-03-16T22:10:28.833Z,0.40
2023-03-16T22:12:01.881Z,0.40